sensor_id;sensor_type;location;lat;lon;timestamp;P1;durP1;ratioP1;P2;durP2;ratioP2
32295;SDS011;18781;51.550;5.418;2023-02-28T00:00:15;17.02;;;8.60;;
32295;SDS011;18781;51.550;5.418;2023-02-28T00:02:42;18.15;;;9.10;;
32295;SDS011;18781;51.550;5.418;2023-02-28T00:05:09;15.70;;;8.68;;
32295;SDS011;18781;51.550;5.418;2023-02-28T00:07:36;18.65;;;8.85;;
32295;SDS011;18781;51.550;5.418;2023-02-28T00:10:02;22.88;;;9.18;;
32295;SDS011;18781;51.550;5.418;2023-02-28T00:12:31;18.67;;;8.80;;
32295;SDS011;18781;51.550;5.418;2023-02-28T00:14:57;13.18;;;8.32;;
32295;SDS011;18781;51.550;5.418;2023-02-28T00:17:22;17.77;;;10.43;;
32295;SDS011;18781;51.550;5.418;2023-02-28T00:19:48;59.70;;;25.92;;
32295;SDS011;18781;51.550;5.418;2023-02-28T00:22:18;23.70;;;11.30;;
32295;SDS011;18781;51.550;5.418;2023-02-28T00:24:45;18.27;;;9.30;;
32295;SDS011;18781;51.550;5.418;2023-02-28T00:27:12;24.98;;;9.48;;
32295;SDS011;18781;51.550;5.418;2023-02-28T00:29:38;13.70;;;7.72;;
32295;SDS011;18781;51.550;5.418;2023-02-28T00:32:04;11.88;;;7.70;;
32295;SDS011;18781;51.550;5.418;2023-02-28T00:34:30;15.45;;;8.85;;
32295;SDS011;18781;51.550;5.418;2023-02-28T00:37:06;14.40;;;7.78;;
32295;SDS011;18781;51.550;5.418;2023-02-28T00:39:36;18.30;;;9.27;;
32295;SDS011;18781;51.550;5.418;2023-02-28T00:42:02;15.75;;;8.80;;
32295;SDS011;18781;51.550;5.418;2023-02-28T00:44:29;15.00;;;8.98;;
32295;SDS011;18781;51.550;5.418;2023-02-28T00:46:55;12.60;;;7.80;;
32295;SDS011;18781;51.550;5.418;2023-02-28T00:49:22;14.35;;;8.35;;
32295;SDS011;18781;51.550;5.418;2023-02-28T00:51:48;12.95;;;8.20;;
32295;SDS011;18781;51.550;5.418;2023-02-28T00:54:14;11.48;;;7.28;;
32295;SDS011;18781;51.550;5.418;2023-02-28T00:56:41;14.55;;;7.07;;
32295;SDS011;18781;51.550;5.418;2023-02-28T00:59:06;16.33;;;8.90;;
32295;SDS011;18781;51.550;5.418;2023-02-28T01:01:32;16.55;;;9.20;;
32295;SDS011;18781;51.550;5.418;2023-02-28T01:03:58;20.05;;;8.82;;
32295;SDS011;18781;51.550;5.418;2023-02-28T01:06:24;13.40;;;8.30;;
32295;SDS011;18781;51.550;5.418;2023-02-28T01:08:49;18.00;;;7.53;;
32295;SDS011;18781;51.550;5.418;2023-02-28T01:11:15;12.38;;;7.90;;
32295;SDS011;18781;51.550;5.418;2023-02-28T01:13:42;12.68;;;7.78;;
32295;SDS011;18781;51.550;5.418;2023-02-28T01:16:09;13.05;;;8.23;;
32295;SDS011;18781;51.550;5.418;2023-02-28T01:18:35;15.25;;;7.88;;
32295;SDS011;18781;51.550;5.418;2023-02-28T01:21:04;13.85;;;7.47;;
32295;SDS011;18781;51.550;5.418;2023-02-28T01:23:31;17.30;;;7.68;;
32295;SDS011;18781;51.550;5.418;2023-02-28T01:25:58;13.30;;;8.18;;
32295;SDS011;18781;51.550;5.418;2023-02-28T01:28:29;11.00;;;7.30;;
32295;SDS011;18781;51.550;5.418;2023-02-28T01:30:55;12.48;;;7.13;;
32295;SDS011;18781;51.550;5.418;2023-02-28T01:33:20;12.48;;;7.07;;
32295;SDS011;18781;51.550;5.418;2023-02-28T01:35:46;14.77;;;7.65;;
32295;SDS011;18781;51.550;5.418;2023-02-28T01:38:11;11.75;;;7.20;;
32295;SDS011;18781;51.550;5.418;2023-02-28T01:40:37;11.90;;;7.30;;
32295;SDS011;18781;51.550;5.418;2023-02-28T01:43:04;10.75;;;6.90;;
32295;SDS011;18781;51.550;5.418;2023-02-28T01:45:43;13.88;;;7.00;;
32295;SDS011;18781;51.550;5.418;2023-02-28T01:48:09;13.52;;;7.55;;
32295;SDS011;18781;51.550;5.418;2023-02-28T01:50:36;12.93;;;7.10;;
32295;SDS011;18781;51.550;5.418;2023-02-28T01:53:06;11.75;;;7.10;;
32295;SDS011;18781;51.550;5.418;2023-02-28T01:55:34;11.63;;;7.03;;
32295;SDS011;18781;51.550;5.418;2023-02-28T01:58:02;16.05;;;7.63;;
32295;SDS011;18781;51.550;5.418;2023-02-28T02:00:31;15.88;;;7.88;;
32295;SDS011;18781;51.550;5.418;2023-02-28T02:02:57;13.00;;;7.45;;
32295;SDS011;18781;51.550;5.418;2023-02-28T02:05:27;11.82;;;7.45;;
32295;SDS011;18781;51.550;5.418;2023-02-28T02:07:56;16.08;;;7.20;;
32295;SDS011;18781;51.550;5.418;2023-02-28T02:10:35;12.55;;;7.03;;
32295;SDS011;18781;51.550;5.418;2023-02-28T02:21:47;10.85;;;7.05;;
32295;SDS011;18781;51.550;5.418;2023-02-28T02:24:33;14.98;;;7.50;;
32295;SDS011;18781;51.550;5.418;2023-02-28T02:38:25;16.58;;;7.60;;
32295;SDS011;18781;51.550;5.418;2023-02-28T02:43:51;16.70;;;7.93;;
32295;SDS011;18781;51.550;5.418;2023-02-28T02:46:21;11.90;;;7.72;;
32295;SDS011;18781;51.550;5.418;2023-02-28T02:48:54;12.30;;;7.22;;
32295;SDS011;18781;51.550;5.418;2023-02-28T02:51:22;14.38;;;7.90;;
32295;SDS011;18781;51.550;5.418;2023-02-28T02:53:53;17.60;;;7.80;;
32295;SDS011;18781;51.550;5.418;2023-02-28T02:56:26;12.98;;;7.55;;
32295;SDS011;18781;51.550;5.418;2023-02-28T02:58:54;13.95;;;7.90;;
32295;SDS011;18781;51.550;5.418;2023-02-28T03:01:24;13.38;;;7.55;;
32295;SDS011;18781;51.550;5.418;2023-02-28T03:03:58;13.07;;;7.50;;
32295;SDS011;18781;51.550;5.418;2023-02-28T03:06:29;13.02;;;7.80;;
32295;SDS011;18781;51.550;5.418;2023-02-28T03:08:54;15.68;;;8.52;;
32295;SDS011;18781;51.550;5.418;2023-02-28T03:11:20;18.70;;;8.23;;
32295;SDS011;18781;51.550;5.418;2023-02-28T03:13:55;19.58;;;8.00;;
32295;SDS011;18781;51.550;5.418;2023-02-28T03:24:33;14.55;;;7.93;;
32295;SDS011;18781;51.550;5.418;2023-02-28T03:29:54;22.55;;;8.07;;
32295;SDS011;18781;51.550;5.418;2023-02-28T03:32:39;13.13;;;7.50;;
32295;SDS011;18781;51.550;5.418;2023-02-28T03:35:34;14.38;;;6.72;;
32295;SDS011;18781;51.550;5.418;2023-02-28T03:38:05;15.70;;;7.32;;
32295;SDS011;18781;51.550;5.418;2023-02-28T03:40:41;13.02;;;7.22;;
32295;SDS011;18781;51.550;5.418;2023-02-28T03:43:12;16.48;;;7.65;;
32295;SDS011;18781;51.550;5.418;2023-02-28T03:45:43;16.10;;;7.95;;
32295;SDS011;18781;51.550;5.418;2023-02-28T03:48:13;15.05;;;7.00;;
32295;SDS011;18781;51.550;5.418;2023-02-28T03:50:54;10.88;;;6.85;;
32295;SDS011;18781;51.550;5.418;2023-02-28T03:53:25;11.68;;;6.93;;
32295;SDS011;18781;51.550;5.418;2023-02-28T03:56:01;14.40;;;7.38;;
32295;SDS011;18781;51.550;5.418;2023-02-28T03:58:57;13.07;;;6.78;;
32295;SDS011;18781;51.550;5.418;2023-02-28T04:01:35;12.20;;;7.18;;
32295;SDS011;18781;51.550;5.418;2023-02-28T04:04:12;14.60;;;7.15;;
32295;SDS011;18781;51.550;5.418;2023-02-28T04:06:39;10.80;;;6.70;;
32295;SDS011;18781;51.550;5.418;2023-02-28T04:09:06;12.38;;;6.40;;
32295;SDS011;18781;51.550;5.418;2023-02-28T04:11:44;12.57;;;6.60;;
32295;SDS011;18781;51.550;5.418;2023-02-28T04:14:11;12.15;;;6.38;;
32295;SDS011;18781;51.550;5.418;2023-02-28T04:16:38;13.85;;;6.88;;
32295;SDS011;18781;51.550;5.418;2023-02-28T04:19:07;11.30;;;6.45;;
32295;SDS011;18781;51.550;5.418;2023-02-28T04:21:44;11.70;;;7.03;;
32295;SDS011;18781;51.550;5.418;2023-02-28T04:24:12;13.25;;;6.43;;
32295;SDS011;18781;51.550;5.418;2023-02-28T04:26:39;9.10;;;4.63;;
32295;SDS011;18781;51.550;5.418;2023-02-28T04:31:34;14.48;;;7.20;;
32295;SDS011;18781;51.550;5.418;2023-02-28T04:34:00;13.25;;;6.35;;
32295;SDS011;18781;51.550;5.418;2023-02-28T04:36:26;12.70;;;6.38;;
32295;SDS011;18781;51.550;5.418;2023-02-28T04:38:52;16.35;;;6.68;;
32295;SDS011;18781;51.550;5.418;2023-02-28T04:41:18;15.68;;;6.40;;
32295;SDS011;18781;51.550;5.418;2023-02-28T04:43:43;13.32;;;6.20;;
32295;SDS011;18781;51.550;5.418;2023-02-28T04:46:09;12.75;;;6.55;;
32295;SDS011;18781;51.550;5.418;2023-02-28T04:48:37;13.52;;;6.65;;
32295;SDS011;18781;51.550;5.418;2023-02-28T04:51:04;10.82;;;6.28;;
32295;SDS011;18781;51.550;5.418;2023-02-28T04:53:32;9.20;;;5.00;;
32295;SDS011;18781;51.550;5.418;2023-02-28T04:55:58;13.32;;;6.50;;
32295;SDS011;18781;51.550;5.418;2023-02-28T04:58:25;9.50;;;6.32;;
32295;SDS011;18781;51.550;5.418;2023-02-28T05:00:54;16.20;;;6.20;;
32295;SDS011;18781;51.550;5.418;2023-02-28T05:03:25;13.52;;;6.13;;
32295;SDS011;18781;51.550;5.418;2023-02-28T05:05:51;17.42;;;6.70;;
32295;SDS011;18781;51.550;5.418;2023-02-28T05:08:17;11.85;;;6.03;;
32295;SDS011;18781;51.550;5.418;2023-02-28T05:10:42;12.10;;;7.13;;
32295;SDS011;18781;51.550;5.418;2023-02-28T05:13:09;15.38;;;6.68;;
32295;SDS011;18781;51.550;5.418;2023-02-28T05:15:36;14.38;;;6.18;;
32295;SDS011;18781;51.550;5.418;2023-02-28T05:18:02;17.92;;;6.65;;
32295;SDS011;18781;51.550;5.418;2023-02-28T05:20:28;11.90;;;6.05;;
32295;SDS011;18781;51.550;5.418;2023-02-28T05:22:53;11.80;;;6.35;;
32295;SDS011;18781;51.550;5.418;2023-02-28T05:25:19;12.95;;;7.05;;
32295;SDS011;18781;51.550;5.418;2023-02-28T05:27:47;9.45;;;6.07;;
32295;SDS011;18781;51.550;5.418;2023-02-28T05:30:13;11.70;;;6.65;;
32295;SDS011;18781;51.550;5.418;2023-02-28T05:32:39;14.32;;;6.57;;
32295;SDS011;18781;51.550;5.418;2023-02-28T05:37:34;14.90;;;7.05;;
32295;SDS011;18781;51.550;5.418;2023-02-28T05:40:00;11.25;;;6.30;;
32295;SDS011;18781;51.550;5.418;2023-02-28T05:42:26;14.40;;;6.75;;
32295;SDS011;18781;51.550;5.418;2023-02-28T05:44:51;14.27;;;7.15;;
32295;SDS011;18781;51.550;5.418;2023-02-28T05:47:17;17.10;;;7.55;;
32295;SDS011;18781;51.550;5.418;2023-02-28T05:49:42;10.77;;;6.30;;
32295;SDS011;18781;51.550;5.418;2023-02-28T05:52:08;10.40;;;6.82;;
32295;SDS011;18781;51.550;5.418;2023-02-28T05:54:34;13.05;;;7.20;;
32295;SDS011;18781;51.550;5.418;2023-02-28T05:56:59;10.68;;;6.90;;
32295;SDS011;18781;51.550;5.418;2023-02-28T05:59:25;13.13;;;7.07;;
32295;SDS011;18781;51.550;5.418;2023-02-28T06:01:50;12.40;;;6.93;;
32295;SDS011;18781;51.550;5.418;2023-02-28T06:04:18;8.30;;;6.15;;
32295;SDS011;18781;51.550;5.418;2023-02-28T06:06:45;15.05;;;6.85;;
32295;SDS011;18781;51.550;5.418;2023-02-28T06:09:14;13.35;;;6.88;;
32295;SDS011;18781;51.550;5.418;2023-02-28T06:11:41;17.88;;;7.28;;
32295;SDS011;18781;51.550;5.418;2023-02-28T06:14:07;13.15;;;7.35;;
32295;SDS011;18781;51.550;5.418;2023-02-28T06:16:34;13.98;;;8.32;;
32295;SDS011;18781;51.550;5.418;2023-02-28T06:19:02;13.82;;;8.07;;
32295;SDS011;18781;51.550;5.418;2023-02-28T06:21:28;15.73;;;9.18;;
32295;SDS011;18781;51.550;5.418;2023-02-28T06:23:55;25.98;;;8.55;;
32295;SDS011;18781;51.550;5.418;2023-02-28T06:26:21;12.50;;;8.02;;
32295;SDS011;18781;51.550;5.418;2023-02-28T06:28:47;16.95;;;7.80;;
32295;SDS011;18781;51.550;5.418;2023-02-28T06:31:13;12.13;;;7.65;;
32295;SDS011;18781;51.550;5.418;2023-02-28T06:33:41;12.85;;;7.40;;
32295;SDS011;18781;51.550;5.418;2023-02-28T06:36:08;14.88;;;7.90;;
32295;SDS011;18781;51.550;5.418;2023-02-28T06:38:35;14.57;;;7.90;;
32295;SDS011;18781;51.550;5.418;2023-02-28T06:41:01;12.93;;;7.03;;
32295;SDS011;18781;51.550;5.418;2023-02-28T06:43:28;16.55;;;6.97;;
32295;SDS011;18781;51.550;5.418;2023-02-28T06:45:56;13.13;;;7.22;;
32295;SDS011;18781;51.550;5.418;2023-02-28T06:48:23;13.43;;;6.97;;
32295;SDS011;18781;51.550;5.418;2023-02-28T06:50:49;12.40;;;7.07;;
32295;SDS011;18781;51.550;5.418;2023-02-28T06:53:15;11.73;;;7.05;;
32295;SDS011;18781;51.550;5.418;2023-02-28T06:55:41;13.32;;;6.25;;
32295;SDS011;18781;51.550;5.418;2023-02-28T06:58:06;16.65;;;7.30;;
32295;SDS011;18781;51.550;5.418;2023-02-28T07:00:45;14.97;;;5.77;;
32295;SDS011;18781;51.550;5.418;2023-02-28T07:03:11;16.52;;;7.60;;
32295;SDS011;18781;51.550;5.418;2023-02-28T07:05:38;13.40;;;6.93;;
32295;SDS011;18781;51.550;5.418;2023-02-28T07:08:05;13.05;;;6.50;;
32295;SDS011;18781;51.550;5.418;2023-02-28T07:10:31;22.17;;;6.82;;
32295;SDS011;18781;51.550;5.418;2023-02-28T07:12:57;11.98;;;6.78;;
32295;SDS011;18781;51.550;5.418;2023-02-28T07:15:23;9.82;;;6.30;;
32295;SDS011;18781;51.550;5.418;2023-02-28T07:17:49;14.32;;;7.10;;
32295;SDS011;18781;51.550;5.418;2023-02-28T07:20:15;10.52;;;6.30;;
32295;SDS011;18781;51.550;5.418;2023-02-28T07:22:41;12.50;;;6.65;;
32295;SDS011;18781;51.550;5.418;2023-02-28T07:25:06;11.27;;;5.95;;
32295;SDS011;18781;51.550;5.418;2023-02-28T07:27:32;10.95;;;6.00;;
32295;SDS011;18781;51.550;5.418;2023-02-28T07:29:59;10.93;;;5.68;;
32295;SDS011;18781;51.550;5.418;2023-02-28T07:32:26;10.95;;;6.15;;
32295;SDS011;18781;51.550;5.418;2023-02-28T07:34:52;10.30;;;6.10;;
32295;SDS011;18781;51.550;5.418;2023-02-28T07:37:18;9.77;;;5.72;;
32295;SDS011;18781;51.550;5.418;2023-02-28T07:39:44;9.85;;;5.45;;
32295;SDS011;18781;51.550;5.418;2023-02-28T07:42:09;11.88;;;5.68;;
32295;SDS011;18781;51.550;5.418;2023-02-28T07:44:37;12.27;;;5.53;;
32295;SDS011;18781;51.550;5.418;2023-02-28T07:47:06;13.00;;;5.50;;
32295;SDS011;18781;51.550;5.418;2023-02-28T07:49:32;11.18;;;5.80;;
32295;SDS011;18781;51.550;5.418;2023-02-28T07:51:59;10.00;;;5.15;;
32295;SDS011;18781;51.550;5.418;2023-02-28T07:54:24;9.82;;;5.63;;
32295;SDS011;18781;51.550;5.418;2023-02-28T07:56:50;12.45;;;5.82;;
32295;SDS011;18781;51.550;5.418;2023-02-28T07:59:16;8.50;;;5.20;;
32295;SDS011;18781;51.550;5.418;2023-02-28T08:01:41;12.70;;;5.95;;
32295;SDS011;18781;51.550;5.418;2023-02-28T08:04:09;9.02;;;5.60;;
32295;SDS011;18781;51.550;5.418;2023-02-28T08:06:35;14.30;;;6.03;;
32295;SDS011;18781;51.550;5.418;2023-02-28T08:09:00;14.13;;;5.80;;
32295;SDS011;18781;51.550;5.418;2023-02-28T08:11:26;13.88;;;6.25;;
32295;SDS011;18781;51.550;5.418;2023-02-28T08:13:51;11.98;;;4.80;;
32295;SDS011;18781;51.550;5.418;2023-02-28T08:16:17;11.25;;;5.25;;
32295;SDS011;18781;51.550;5.418;2023-02-28T08:18:47;9.63;;;5.00;;
32295;SDS011;18781;51.550;5.418;2023-02-28T08:21:16;7.72;;;4.25;;
32295;SDS011;18781;51.550;5.418;2023-02-28T08:23:42;9.52;;;3.72;;
32295;SDS011;18781;51.550;5.418;2023-02-28T08:26:07;6.07;;;3.40;;
32295;SDS011;18781;51.550;5.418;2023-02-28T08:28:33;4.15;;;2.80;;
32295;SDS011;18781;51.550;5.418;2023-02-28T08:30:59;4.45;;;2.85;;
32295;SDS011;18781;51.550;5.418;2023-02-28T08:33:24;6.80;;;3.13;;
32295;SDS011;18781;51.550;5.418;2023-02-28T08:35:54;5.40;;;3.05;;
32295;SDS011;18781;51.550;5.418;2023-02-28T08:40:46;6.30;;;3.13;;
32295;SDS011;18781;51.550;5.418;2023-02-28T08:43:11;5.60;;;3.22;;
32295;SDS011;18781;51.550;5.418;2023-02-28T08:45:37;3.92;;;2.70;;
32295;SDS011;18781;51.550;5.418;2023-02-28T08:48:03;5.53;;;3.15;;
32295;SDS011;18781;51.550;5.418;2023-02-28T08:50:28;5.53;;;2.95;;
32295;SDS011;18781;51.550;5.418;2023-02-28T08:52:54;4.85;;;3.00;;
32295;SDS011;18781;51.550;5.418;2023-02-28T08:55:20;4.90;;;3.03;;
32295;SDS011;18781;51.550;5.418;2023-02-28T08:57:45;4.10;;;2.50;;
32295;SDS011;18781;51.550;5.418;2023-02-28T09:00:11;7.53;;;3.00;;
32295;SDS011;18781;51.550;5.418;2023-02-28T09:02:38;6.32;;;2.97;;
32295;SDS011;18781;51.550;5.418;2023-02-28T09:05:04;3.67;;;2.60;;
32295;SDS011;18781;51.550;5.418;2023-02-28T09:07:30;5.32;;;2.80;;
32295;SDS011;18781;51.550;5.418;2023-02-28T09:09:55;7.30;;;3.15;;
32295;SDS011;18781;51.550;5.418;2023-02-28T09:12:26;6.38;;;2.33;;
32295;SDS011;18781;51.550;5.418;2023-02-28T09:14:52;6.50;;;2.30;;
32295;SDS011;18781;51.550;5.418;2023-02-28T09:17:18;7.90;;;2.25;;
32295;SDS011;18781;51.550;5.418;2023-02-28T09:19:44;4.55;;;2.13;;
32295;SDS011;18781;51.550;5.418;2023-02-28T09:22:12;3.15;;;1.98;;
32295;SDS011;18781;51.550;5.418;2023-02-28T09:24:38;4.47;;;2.30;;
32295;SDS011;18781;51.550;5.418;2023-02-28T09:27:04;2.78;;;2.15;;
32295;SDS011;18781;51.550;5.418;2023-02-28T09:29:30;4.15;;;2.10;;
32295;SDS011;18781;51.550;5.418;2023-02-28T09:31:58;5.72;;;2.15;;
32295;SDS011;18781;51.550;5.418;2023-02-28T09:34:24;4.00;;;2.03;;
32295;SDS011;18781;51.550;5.418;2023-02-28T09:36:50;4.97;;;2.70;;
32295;SDS011;18781;51.550;5.418;2023-02-28T09:39:20;4.10;;;2.45;;
32295;SDS011;18781;51.550;5.418;2023-02-28T09:41:47;4.53;;;2.25;;
32295;SDS011;18781;51.550;5.418;2023-02-28T09:44:38;3.20;;;2.10;;
32295;SDS011;18781;51.550;5.418;2023-02-28T09:49:59;5.30;;;2.28;;
32295;SDS011;18781;51.550;5.418;2023-02-28T09:52:36;2.42;;;1.90;;
32295;SDS011;18781;51.550;5.418;2023-02-28T09:55:17;4.05;;;2.50;;
32295;SDS011;18781;51.550;5.418;2023-02-28T09:58:04;4.07;;;2.60;;
32295;SDS011;18781;51.550;5.418;2023-02-28T10:00:32;3.78;;;2.60;;
32295;SDS011;18781;51.550;5.418;2023-02-28T10:05:38;5.68;;;2.47;;
32295;SDS011;18781;51.550;5.418;2023-02-28T10:11:11;4.70;;;2.15;;
32295;SDS011;18781;51.550;5.418;2023-02-28T10:16:21;3.38;;;2.35;;
32295;SDS011;18781;51.550;5.418;2023-02-28T10:18:54;3.70;;;2.03;;
32295;SDS011;18781;51.550;5.418;2023-02-28T10:21:30;2.47;;;1.90;;
32295;SDS011;18781;51.550;5.418;2023-02-28T10:27:01;5.43;;;2.28;;
32295;SDS011;18781;51.550;5.418;2023-02-28T10:29:36;3.78;;;1.75;;
32295;SDS011;18781;51.550;5.418;2023-02-28T10:32:02;3.40;;;2.00;;
32295;SDS011;18781;51.550;5.418;2023-02-28T10:34:29;2.95;;;1.75;;
32295;SDS011;18781;51.550;5.418;2023-02-28T10:36:54;2.63;;;1.73;;
32295;SDS011;18781;51.550;5.418;2023-02-28T10:39:38;4.70;;;1.70;;
32295;SDS011;18781;51.550;5.418;2023-02-28T10:42:04;3.80;;;2.00;;
32295;SDS011;18781;51.550;5.418;2023-02-28T10:44:43;2.75;;;1.67;;
32295;SDS011;18781;51.550;5.418;2023-02-28T10:47:13;4.47;;;1.70;;
32295;SDS011;18781;51.550;5.418;2023-02-28T10:49:46;3.20;;;1.90;;
32295;SDS011;18781;51.550;5.418;2023-02-28T10:52:14;4.07;;;1.83;;
32295;SDS011;18781;51.550;5.418;2023-02-28T10:58:01;4.47;;;1.33;;
32295;SDS011;18781;51.550;5.418;2023-02-28T11:00:31;3.10;;;1.95;;
32295;SDS011;18781;51.550;5.418;2023-02-28T11:02:59;3.25;;;2.10;;
32295;SDS011;18781;51.550;5.418;2023-02-28T11:05:31;2.97;;;1.70;;
32295;SDS011;18781;51.550;5.418;2023-02-28T11:08:03;2.53;;;1.80;;
32295;SDS011;18781;51.550;5.418;2023-02-28T11:10:38;2.17;;;1.63;;
32295;SDS011;18781;51.550;5.418;2023-02-28T11:13:04;3.42;;;2.03;;
32295;SDS011;18781;51.550;5.418;2023-02-28T11:15:32;3.20;;;2.00;;
32295;SDS011;18781;51.550;5.418;2023-02-28T11:18:20;4.15;;;1.90;;
32295;SDS011;18781;51.550;5.418;2023-02-28T11:20:47;3.38;;;1.90;;
32295;SDS011;18781;51.550;5.418;2023-02-28T11:23:15;3.72;;;1.58;;
32295;SDS011;18781;51.550;5.418;2023-02-28T11:25:45;2.15;;;1.60;;
32295;SDS011;18781;51.550;5.418;2023-02-28T11:28:28;3.05;;;2.03;;
32295;SDS011;18781;51.550;5.418;2023-02-28T11:31:14;3.47;;;1.95;;
32295;SDS011;18781;51.550;5.418;2023-02-28T11:33:48;3.60;;;2.28;;
32295;SDS011;18781;51.550;5.418;2023-02-28T11:36:23;4.30;;;1.90;;
32295;SDS011;18781;51.550;5.418;2023-02-28T11:38:56;2.95;;;1.92;;
32295;SDS011;18781;51.550;5.418;2023-02-28T11:42:04;4.35;;;1.85;;
32295;SDS011;18781;51.550;5.418;2023-02-28T11:47:00;3.45;;;2.38;;
32295;SDS011;18781;51.550;5.418;2023-02-28T12:16:53;3.60;;;2.20;;
32295;SDS011;18781;51.550;5.418;2023-02-28T12:22:42;3.50;;;2.00;;
32295;SDS011;18781;51.550;5.418;2023-02-28T12:28:14;2.50;;;2.15;;
32295;SDS011;18781;51.550;5.418;2023-02-28T12:30:50;3.33;;;2.25;;
32295;SDS011;18781;51.550;5.418;2023-02-28T12:33:26;7.30;;;2.30;;
32295;SDS011;18781;51.550;5.418;2023-02-28T12:35:59;7.65;;;2.60;;
32295;SDS011;18781;51.550;5.418;2023-02-28T12:38:34;2.92;;;2.40;;
32295;SDS011;18781;51.550;5.418;2023-02-28T12:41:05;3.63;;;2.33;;
32295;SDS011;18781;51.550;5.418;2023-02-28T12:43:40;4.05;;;2.10;;
32295;SDS011;18781;51.550;5.418;2023-02-28T12:46:17;3.15;;;2.10;;
32295;SDS011;18781;51.550;5.418;2023-02-28T12:48:48;4.05;;;2.25;;
32295;SDS011;18781;51.550;5.418;2023-02-28T12:51:21;7.38;;;2.55;;
32295;SDS011;18781;51.550;5.418;2023-02-28T12:59:35;6.10;;;2.17;;
32295;SDS011;18781;51.550;5.418;2023-02-28T13:02:24;8.52;;;2.47;;
32295;SDS011;18781;51.550;5.418;2023-02-28T13:11:06;3.35;;;2.50;;
32295;SDS011;18781;51.550;5.418;2023-02-28T13:13:32;4.70;;;2.33;;
32295;SDS011;18781;51.550;5.418;2023-02-28T13:18:38;5.38;;;2.45;;
32295;SDS011;18781;51.550;5.418;2023-02-28T13:21:10;6.53;;;2.75;;
32295;SDS011;18781;51.550;5.418;2023-02-28T13:26:20;3.70;;;2.63;;
32295;SDS011;18781;51.550;5.418;2023-02-28T13:28:58;5.05;;;2.70;;
32295;SDS011;18781;51.550;5.418;2023-02-28T13:34:31;3.53;;;2.42;;
32295;SDS011;18781;51.550;5.418;2023-02-28T13:39:49;3.65;;;2.38;;
32295;SDS011;18781;51.550;5.418;2023-02-28T13:47:28;2.90;;;2.15;;
32295;SDS011;18781;51.550;5.418;2023-02-28T14:06:38;5.18;;;2.60;;
32295;SDS011;18781;51.550;5.418;2023-02-28T14:09:19;3.55;;;2.45;;
32295;SDS011;18781;51.550;5.418;2023-02-28T14:11:49;3.47;;;2.75;;
32295;SDS011;18781;51.550;5.418;2023-02-28T14:16:59;6.25;;;2.65;;
32295;SDS011;18781;51.550;5.418;2023-02-28T14:19:29;4.88;;;2.83;;
32295;SDS011;18781;51.550;5.418;2023-02-28T14:22:12;5.25;;;2.92;;
32295;SDS011;18781;51.550;5.418;2023-02-28T14:24:50;6.60;;;2.65;;
32295;SDS011;18781;51.550;5.418;2023-02-28T14:38:43;6.40;;;3.15;;
32295;SDS011;18781;51.550;5.418;2023-02-28T14:41:32;3.70;;;2.80;;
32295;SDS011;18781;51.550;5.418;2023-02-28T14:44:00;4.55;;;2.40;;
32295;SDS011;18781;51.550;5.418;2023-02-28T14:46:28;4.57;;;2.95;;
32295;SDS011;18781;51.550;5.418;2023-02-28T14:49:03;3.90;;;2.80;;
32295;SDS011;18781;51.550;5.418;2023-02-28T14:51:30;4.30;;;2.72;;
32295;SDS011;18781;51.550;5.418;2023-02-28T14:53:57;5.00;;;2.40;;
32295;SDS011;18781;51.550;5.418;2023-02-28T14:56:35;3.55;;;2.63;;
32295;SDS011;18781;51.550;5.418;2023-02-28T14:59:03;5.18;;;2.70;;
32295;SDS011;18781;51.550;5.418;2023-02-28T15:01:31;4.07;;;2.55;;
32295;SDS011;18781;51.550;5.418;2023-02-28T15:04:00;3.25;;;2.22;;
32295;SDS011;18781;51.550;5.418;2023-02-28T15:09:08;7.68;;;2.58;;
32295;SDS011;18781;51.550;5.418;2023-02-28T15:11:36;8.77;;;2.40;;
32295;SDS011;18781;51.550;5.418;2023-02-28T15:14:03;6.10;;;2.75;;
32295;SDS011;18781;51.550;5.418;2023-02-28T15:16:31;9.00;;;2.78;;
32295;SDS011;18781;51.550;5.418;2023-02-28T15:19:20;5.45;;;2.88;;
32295;SDS011;18781;51.550;5.418;2023-02-28T15:22:13;4.32;;;2.65;;
32295;SDS011;18781;51.550;5.418;2023-02-28T15:27:12;6.65;;;2.95;;
32295;SDS011;18781;51.550;5.418;2023-02-28T15:29:42;4.18;;;2.90;;
32295;SDS011;18781;51.550;5.418;2023-02-28T15:32:31;5.97;;;2.90;;
32295;SDS011;18781;51.550;5.418;2023-02-28T15:35:24;9.35;;;2.70;;
32295;SDS011;18781;51.550;5.418;2023-02-28T15:37:54;4.22;;;3.05;;
32295;SDS011;18781;51.550;5.418;2023-02-28T15:43:27;6.38;;;3.13;;
32295;SDS011;18781;51.550;5.418;2023-02-28T15:48:28;5.40;;;3.15;;
32295;SDS011;18781;51.550;5.418;2023-02-28T15:53:28;7.72;;;3.25;;
32295;SDS011;18781;51.550;5.418;2023-02-28T15:56:01;6.53;;;2.90;;
32295;SDS011;18781;51.550;5.418;2023-02-28T15:58:29;5.13;;;3.40;;
32295;SDS011;18781;51.550;5.418;2023-02-28T16:01:06;5.78;;;3.47;;
32295;SDS011;18781;51.550;5.418;2023-02-28T16:03:46;8.48;;;3.72;;
32295;SDS011;18781;51.550;5.418;2023-02-28T16:08:48;6.22;;;3.60;;
32295;SDS011;18781;51.550;5.418;2023-02-28T16:11:16;6.35;;;3.58;;
32295;SDS011;18781;51.550;5.418;2023-02-28T16:13:42;5.50;;;3.97;;
32295;SDS011;18781;51.550;5.418;2023-02-28T16:16:07;5.32;;;3.53;;
32295;SDS011;18781;51.550;5.418;2023-02-28T16:18:39;6.93;;;4.40;;
32295;SDS011;18781;51.550;5.418;2023-02-28T16:21:05;4.88;;;3.13;;
32295;SDS011;18781;51.550;5.418;2023-02-28T16:23:30;8.80;;;3.63;;
32295;SDS011;18781;51.550;5.418;2023-02-28T16:25:56;13.63;;;5.93;;
32295;SDS011;18781;51.550;5.418;2023-02-28T16:28:23;15.15;;;5.82;;
32295;SDS011;18781;51.550;5.418;2023-02-28T16:30:56;13.85;;;7.22;;
32295;SDS011;18781;51.550;5.418;2023-02-28T16:33:21;9.57;;;5.15;;
32295;SDS011;18781;51.550;5.418;2023-02-28T16:35:47;8.25;;;3.88;;
32295;SDS011;18781;51.550;5.418;2023-02-28T16:38:13;6.90;;;3.67;;
32295;SDS011;18781;51.550;5.418;2023-02-28T16:40:39;12.68;;;4.85;;
32295;SDS011;18781;51.550;5.418;2023-02-28T16:43:05;8.20;;;3.80;;
32295;SDS011;18781;51.550;5.418;2023-02-28T16:45:36;7.47;;;4.18;;
32295;SDS011;18781;51.550;5.418;2023-02-28T16:48:02;6.60;;;3.67;;
32295;SDS011;18781;51.550;5.418;2023-02-28T16:50:29;6.40;;;3.88;;
32295;SDS011;18781;51.550;5.418;2023-02-28T16:52:57;8.50;;;4.13;;
32295;SDS011;18781;51.550;5.418;2023-02-28T16:55:23;13.27;;;5.00;;
32295;SDS011;18781;51.550;5.418;2023-02-28T16:57:54;8.65;;;4.05;;
32295;SDS011;18781;51.550;5.418;2023-02-28T17:00:22;7.95;;;3.53;;
32295;SDS011;18781;51.550;5.418;2023-02-28T17:02:48;6.97;;;3.60;;
32295;SDS011;18781;51.550;5.418;2023-02-28T17:05:14;6.95;;;4.07;;
32295;SDS011;18781;51.550;5.418;2023-02-28T17:07:40;11.52;;;4.57;;
32295;SDS011;18781;51.550;5.418;2023-02-28T17:10:14;6.97;;;4.63;;
32295;SDS011;18781;51.550;5.418;2023-02-28T17:12:41;10.07;;;5.55;;
32295;SDS011;18781;51.550;5.418;2023-02-28T17:15:08;13.35;;;6.20;;
32295;SDS011;18781;51.550;5.418;2023-02-28T17:17:35;10.18;;;5.70;;
32295;SDS011;18781;51.550;5.418;2023-02-28T17:20:01;10.27;;;5.60;;
32295;SDS011;18781;51.550;5.418;2023-02-28T17:22:27;9.38;;;6.22;;
32295;SDS011;18781;51.550;5.418;2023-02-28T17:24:53;11.48;;;5.78;;
32295;SDS011;18781;51.550;5.418;2023-02-28T17:27:22;8.25;;;5.78;;
32295;SDS011;18781;51.550;5.418;2023-02-28T17:29:48;11.23;;;4.97;;
32295;SDS011;18781;51.550;5.418;2023-02-28T17:32:13;7.60;;;4.47;;
32295;SDS011;18781;51.550;5.418;2023-02-28T17:34:39;5.80;;;3.95;;
32295;SDS011;18781;51.550;5.418;2023-02-28T17:37:05;8.82;;;4.45;;
32295;SDS011;18781;51.550;5.418;2023-02-28T17:39:30;7.85;;;4.72;;
32295;SDS011;18781;51.550;5.418;2023-02-28T17:41:56;7.00;;;4.85;;